Time,TemperatureF,DewpointF,PressureIn,WindDirection,WindDirectionDegrees,WindSpeedMPH,WindSpeedGustMPH,Humidity,HourlyPrecipIn,Conditions,Clouds,dailyrainin,SoftwareType,DateUTC
2013-06-10 00:03:00,57.0,55.0,30.18,WNW,293,0.0,0.0,94,0.00,,,0.00,,2013-06-10 04:03:00,
2013-06-10 00:13:00,57.0,55.0,30.18,WNW,293,0.0,0.0,94,0.00,,,0.00,,2013-06-10 04:13:00,
2013-06-10 00:23:00,56.0,54.0,30.18,WNW,294,0.0,0.0,94,0.00,,,0.00,,2013-06-10 04:23:00,
2013-06-10 00:33:00,56.0,54.0,30.19,WNW,294,0.0,0.0,94,0.00,,,0.00,,2013-06-10 04:33:00,
2013-06-10 00:42:00,56.0,54.0,30.19,WNW,294,0.0,0.0,94,0.00,,,0.00,,2013-06-10 04:42:00,
2013-06-10 00:53:00,56.0,55.0,30.19,WNW,294,0.0,0.0,95,0.00,,,0.00,,2013-06-10 04:53:00,
2013-06-10 01:02:00,55.0,54.0,30.19,WNW,294,0.0,0.0,95,0.00,,,0.00,,2013-06-10 05:02:00,
2013-06-10 01:12:00,55.0,54.0,30.19,WNW,294,0.0,0.0,95,0.00,,,0.00,,2013-06-10 05:12:00,
2013-06-10 01:22:00,55.0,54.0,30.19,WNW,294,0.0,0.0,95,0.00,,,0.00,,2013-06-10 05:22:00,
2013-06-10 01:32:00,55.0,54.0,30.19,WNW,294,0.0,0.0,95,0.00,,,0.00,,2013-06-10 05:32:00,
2013-06-10 01:42:00,55.0,54.0,30.19,WNW,294,0.0,0.0,95,0.00,,,0.00,,2013-06-10 05:42:00,
2013-06-10 06:23:00,52.0,51.0,30.21,WNW,295,0.0,0.0,98,0.00,,,0.00,,2013-06-10 10:23:00,
2013-06-10 06:33:00,52.0,52.0,30.21,WNW,294,0.0,0.0,99,0.00,,,0.00,,2013-06-10 10:33:00,
2013-06-10 06:42:00,52.0,52.0,30.21,WNW,294,0.0,0.0,99,0.00,,,0.00,,2013-06-10 10:42:00,
2013-06-10 06:52:00,53.0,53.0,30.22,WNW,294,0.0,1.0,99,0.00,,,0.00,,2013-06-10 10:52:00,
2013-06-10 07:03:00,53.0,53.0,30.22,WNW,294,0.0,0.0,99,0.00,,,0.00,,2013-06-10 11:03:00,
2013-06-10 07:12:00,53.0,53.0,30.22,WNW,294,0.0,0.0,99,0.00,,,0.00,,2013-06-10 11:12:00,
2013-06-10 07:22:00,55.0,55.0,30.22,WNW,294,0.0,0.0,99,0.00,,,0.00,,2013-06-10 11:22:00,
2013-06-10 07:32:00,56.0,56.0,30.22,WNW,294,0.0,0.0,99,0.00,,,0.00,,2013-06-10 11:32:00,
2013-06-10 07:42:00,56.0,56.0,30.22,WNW,294,0.0,0.0,99,0.00,,,0.00,,2013-06-10 11:42:00,
2013-06-10 07:52:00,59.0,59.0,30.22,WNW,294,0.0,0.0,100,0.00,,,0.00,,2013-06-10 11:52:00,
2013-06-10 08:02:00,59.0,59.0,30.22,WNW,294,0.0,1.0,100,0.00,,,0.00,,2013-06-10 12:02:00,
2013-06-10 08:12:00,59.0,59.0,30.22,WNW,294,0.0,1.0,100,0.00,,,0.00,,2013-06-10 12:12:00,
2013-06-10 08:22:00,61.0,61.0,30.23,WNW,294,0.0,0.0,99,0.00,,,0.00,,2013-06-10 12:22:00,
2013-06-10 08:32:00,61.0,60.0,30.22,WSW,255,0.0,1.0,97,0.00,,,0.00,,2013-06-10 12:32:00,
2013-06-10 08:42:00,61.0,60.0,30.22,WSW,255,0.0,1.0,97,0.00,,,0.00,,2013-06-10 12:42:00,
2013-06-10 08:52:00,63.0,60.0,30.23,WSW,257,0.0,1.0,89,0.00,,,0.00,,2013-06-10 12:52:00,
2013-06-10 09:02:00,64.0,59.0,30.23,WSW,257,0.0,1.0,85,0.00,,,0.00,,2013-06-10 13:02:00,
2013-06-10 09:12:00,64.0,59.0,30.23,WSW,257,0.0,1.0,85,0.00,,,0.00,,2013-06-10 13:12:00,
2013-06-10 09:22:00,65.0,59.0,30.23,WSW,248,0.0,1.0,81,0.00,,,0.00,,2013-06-10 13:22:00,
2013-06-10 09:32:00,66.0,60.0,30.23,East,86,0.0,2.0,80,0.00,,,0.00,,2013-06-10 13:32:00,
2013-06-10 09:42:00,66.0,60.0,30.23,East,86,0.0,2.0,80,0.00,,,0.00,,2013-06-10 13:42:00,
2013-06-10 09:52:00,68.0,61.0,30.22,North,354,0.0,3.0,78,0.00,,,0.00,,2013-06-10 13:52:00,
2013-06-10 10:02:00,68.0,60.0,30.22,North,354,0.0,1.0,76,0.00,,,0.00,,2013-06-10 14:02:00,
2013-06-10 10:12:00,68.0,60.0,30.22,North,354,0.0,1.0,76,0.00,,,0.00,,2013-06-10 14:12:00,
2013-06-10 10:22:00,69.0,62.0,30.22,NNW,342,0.0,2.0,78,0.00,,,0.00,,2013-06-10 14:22:00,
2013-06-10 10:32:00,69.0,61.0,30.22,NNW,342,0.0,1.0,77,0.00,,,0.00,,2013-06-10 14:32:00,
2013-06-10 10:42:00,69.0,61.0,30.22,NNW,342,0.0,1.0,77,0.00,,,0.00,,2013-06-10 14:42:00,
2013-06-10 10:52:00,69.0,60.0,30.22,South,184,0.0,2.0,72,0.00,,,0.00,,2013-06-10 14:52:00,
2013-06-10 11:02:00,69.0,61.0,30.22,East,91,0.0,2.0,75,0.00,,,0.00,,2013-06-10 15:02:00,
2013-06-10 11:12:00,69.0,61.0,30.22,East,91,0.0,2.0,75,0.00,,,0.00,,2013-06-10 15:12:00,
2013-06-10 11:22:00,70.0,60.0,30.23,North,354,0.0,2.0,71,0.00,,,0.00,,2013-06-10 15:22:00,
2013-06-10 11:33:00,70.0,61.0,30.23,NNW,338,0.0,3.0,72,0.00,,,0.00,,2013-06-10 15:33:00,
2013-06-10 11:43:00,70.0,61.0,30.23,NNW,338,0.0,3.0,72,0.00,,,0.00,,2013-06-10 15:43:00,
2013-06-10 11:53:00,70.0,61.0,30.23,NNW,342,0.0,1.0,74,0.00,,,0.00,,2013-06-10 15:53:00,
2013-06-10 12:03:00,69.0,58.0,30.22,NNW,342,0.0,2.0,69,0.00,,,0.00,,2013-06-10 16:03:00,
2013-06-10 12:13:00,69.0,58.0,30.22,NNW,342,0.0,2.0,69,0.00,,,0.00,,2013-06-10 16:13:00,
2013-06-10 12:23:00,68.0,59.0,30.22,NNW,342,0.0,2.0,72,0.00,,,0.00,,2013-06-10 16:23:00,
2013-06-10 12:33:00,68.0,60.0,30.22,NNW,342,0.0,1.0,75,0.00,,,0.00,,2013-06-10 16:33:00,
2013-06-10 12:43:00,68.0,60.0,30.22,NNW,342,0.0,1.0,75,0.00,,,0.00,,2013-06-10 16:43:00,
2013-06-10 12:53:00,68.0,59.0,30.22,North,351,0.0,2.0,73,0.00,,,0.00,,2013-06-10 16:53:00,
2013-06-10 13:03:00,68.0,59.0,30.22,North,354,0.0,1.0,74,0.00,,,0.00,,2013-06-10 17:03:00,
2013-06-10 13:14:00,68.0,59.0,30.22,North,354,0.0,1.0,74,0.00,,,0.00,,2013-06-10 17:14:00,
2013-06-10 13:27:00,69.0,60.0,30.22,West,281,1.0,3.0,73,0.00,,,0.00,,2013-06-10 17:27:00,
2013-06-10 13:38:00,70.0,61.0,30.21,West,281,0.0,3.0,74,0.00,,,0.00,,2013-06-10 17:38:00,
2013-06-10 13:48:00,71.0,61.0,30.21,West,278,0.0,3.0,71,0.00,,,0.00,,2013-06-10 17:48:00,
2013-06-10 13:58:00,71.0,61.0,30.21,West,278,0.0,3.0,71,0.00,,,0.00,,2013-06-10 17:58:00,
2013-06-10 14:07:00,71.0,62.0,30.20,West,265,0.0,2.0,73,0.00,,,0.00,,2013-06-10 18:07:00,
2013-06-10 14:14:00,71.0,62.0,30.20,West,265,0.0,2.0,73,0.00,,,0.00,,2013-06-10 18:14:00,
2013-06-10 14:25:00,71.0,61.0,30.20,West,263,0.0,2.0,71,0.00,,,0.00,,2013-06-10 18:25:00,
2013-06-10 14:35:00,70.0,60.0,30.20,West,266,0.0,2.0,70,0.00,,,0.00,,2013-06-10 18:35:00,
2013-06-10 14:48:00,70.0,60.0,30.20,West,266,0.0,2.0,70,0.00,,,0.00,,2013-06-10 18:48:00,
2013-06-10 14:55:00,70.0,61.0,30.19,West,269,0.0,0.0,73,0.00,,,0.00,,2013-06-10 18:55:00,
2013-06-10 15:03:00,69.0,60.0,30.19,West,273,0.0,2.0,74,0.00,,,0.00,,2013-06-10 19:03:00,
2013-06-10 15:13:00,69.0,60.0,30.19,West,273,0.0,2.0,74,0.00,,,0.00,,2013-06-10 19:13:00,
2013-06-10 15:22:00,69.0,60.0,30.19,WSW,253,0.0,4.0,73,0.00,,,0.00,,2013-06-10 19:22:00,
2013-06-10 15:33:00,69.0,60.0,30.18,WSW,255,0.0,0.0,72,0.00,,,0.00,,2013-06-10 19:33:00,
2013-06-10 15:43:00,69.0,60.0,30.18,WSW,255,0.0,0.0,72,0.00,,,0.00,,2013-06-10 19:43:00,
2013-06-10 15:53:00,69.0,60.0,30.18,West,259,0.0,2.0,72,0.00,,,0.00,,2013-06-10 19:53:00,
2013-06-10 16:03:00,68.0,59.0,30.17,West,269,0.0,2.0,72,0.00,,,0.00,,2013-06-10 20:03:00,
2013-06-10 16:13:00,68.0,59.0,30.17,West,269,0.0,2.0,72,0.00,,,0.00,,2013-06-10 20:13:00,
2013-06-10 16:23:00,68.0,59.0,30.17,West,276,0.0,1.0,72,0.00,,,0.00,,2013-06-10 20:23:00,
2013-06-10 16:32:00,68.0,59.0,30.17,West,276,0.0,1.0,72,0.00,,,0.00,,2013-06-10 20:32:00,
2013-06-10 16:43:00,68.0,59.0,30.17,West,276,0.0,1.0,72,0.00,,,0.00,,2013-06-10 20:43:00,
2013-06-10 16:53:00,67.0,58.0,30.16,West,276,0.0,1.0,73,0.00,,,0.00,,2013-06-10 20:53:00,
2013-06-10 17:02:00,67.0,58.0,30.16,West,276,0.0,1.0,74,0.00,,,0.00,,2013-06-10 21:02:00,
2013-06-10 17:12:00,67.0,58.0,30.16,West,276,0.0,1.0,74,0.00,,,0.00,,2013-06-10 21:12:00,
2013-06-10 17:23:00,66.0,59.0,30.15,West,280,0.0,0.0,78,0.00,,,0.00,,2013-06-10 21:23:00,
2013-06-10 17:34:00,65.0,59.0,30.15,West,279,0.0,0.0,80,0.00,,,0.00,,2013-06-10 21:34:00,
2013-06-10 17:43:00,65.0,59.0,30.15,West,279,0.0,0.0,80,0.00,,,0.00,,2013-06-10 21:43:00,
2013-06-10 17:53:00,64.0,59.0,30.14,West,279,0.0,0.0,83,0.00,,,0.00,,2013-06-10 21:53:00,
2013-06-10 18:03:00,63.0,59.0,30.14,West,279,0.0,0.0,86,0.00,,,0.00,,2013-06-10 22:03:00,
2013-06-10 18:13:00,63.0,59.0,30.14,West,279,0.0,0.0,86,0.00,,,0.00,,2013-06-10 22:13:00,
2013-06-10 18:23:00,62.0,59.0,30.13,West,279,0.0,0.0,90,0.01,,,0.01,,2013-06-10 22:23:00,
2013-06-10 18:33:00,62.0,59.0,30.14,West,279,0.0,0.0,91,0.01,,,0.01,,2013-06-10 22:33:00,
2013-06-10 18:42:00,62.0,59.0,30.14,West,279,0.0,0.0,91,0.01,,,0.01,,2013-06-10 22:42:00,
2013-06-10 18:52:00,62.0,60.0,30.14,West,279,0.0,0.0,92,0.02,,,0.02,,2013-06-10 22:52:00,
2013-06-10 19:03:00,62.0,60.0,30.13,West,279,0.0,1.0,93,0.02,,,0.02,,2013-06-10 23:03:00,
2013-06-10 19:12:00,62.0,60.0,30.13,West,279,0.0,1.0,93,0.02,,,0.02,,2013-06-10 23:12:00,
2013-06-10 19:22:00,62.0,60.0,30.13,West,279,0.0,0.0,94,0.02,,,0.03,,2013-06-10 23:22:00,
2013-06-10 19:32:00,62.0,60.0,30.13,West,280,0.0,0.0,94,0.03,,,0.04,,2013-06-10 23:32:00,
2013-06-10 19:42:00,62.0,60.0,30.13,West,280,0.0,0.0,94,0.03,,,0.04,,2013-06-10 23:42:00,
2013-06-10 19:52:00,61.0,60.0,30.12,West,276,0.0,1.0,95,0.02,,,0.04,,2013-06-10 23:52:00,
2013-06-10 20:02:00,61.0,60.0,30.12,West,276,0.0,0.0,95,0.02,,,0.04,,2013-06-11 00:02:00,
2013-06-10 20:13:00,61.0,60.0,30.11,West,276,0.0,1.0,95,0.02,,,0.05,,2013-06-11 00:13:00,
2013-06-10 20:22:00,61.0,60.0,30.11,West,276,0.0,1.0,95,0.02,,,0.05,,2013-06-11 00:22:00,
2013-06-10 20:32:00,60.0,59.0,30.11,West,275,0.0,1.0,95,0.01,,,0.05,,2013-06-11 00:32:00,
2013-06-10 20:42:00,60.0,59.0,30.11,West,275,0.0,1.0,95,0.01,,,0.05,,2013-06-11 00:42:00,
2013-06-10 20:52:00,60.0,59.0,30.10,WNW,283,0.0,1.0,95,0.02,,,0.06,,2013-06-11 00:52:00,
2013-06-10 21:02:00,59.0,58.0,30.10,WNW,290,0.0,2.0,95,0.02,,,0.06,,2013-06-11 01:02:00,
2013-06-10 21:12:00,59.0,58.0,30.10,WNW,290,0.0,2.0,95,0.02,,,0.06,,2013-06-11 01:12:00,
2013-06-10 21:22:00,59.0,58.0,30.09,West,269,0.0,2.0,95,0.03,,,0.08,,2013-06-11 01:22:00,
2013-06-10 21:33:00,58.0,57.0,30.09,SE,145,0.0,1.0,96,0.04,,,0.09,,2013-06-11 01:33:00,
2013-06-10 21:42:00,58.0,57.0,30.09,SE,145,0.0,1.0,96,0.04,,,0.09,,2013-06-11 01:42:00,
2013-06-10 21:53:00,58.0,57.0,30.09,West,277,0.0,2.0,96,0.05,,,0.11,,2013-06-11 01:53:00,
2013-06-10 22:02:00,58.0,57.0,30.09,West,274,0.0,1.0,96,0.06,,,0.12,,2013-06-11 02:02:00,
2013-06-10 22:12:00,58.0,57.0,30.09,West,274,0.0,1.0,96,0.06,,,0.12,,2013-06-11 02:12:00,
2013-06-10 22:22:00,58.0,57.0,30.09,West,274,0.0,1.0,96,0.06,,,0.12,,2013-06-11 02:22:00,
2013-06-10 22:32:00,58.0,57.0,30.09,West,274,0.0,1.0,96,0.06,,,0.12,,2013-06-11 02:32:00,
2013-06-10 22:42:00,58.0,57.0,30.09,West,274,0.0,1.0,96,0.06,,,0.12,,2013-06-11 02:42:00,